sensor_id;sensor_type;location;lat;lon;timestamp;P1;durP1;ratioP1;P2;durP2;ratioP2
55465;SDS011;41329;41.594;23.810;2023-04-03T00:01:15;6.00;;;5.50;;
55465;SDS011;41329;41.594;23.810;2023-04-03T00:03:41;5.37;;;4.87;;
55465;SDS011;41329;41.594;23.810;2023-04-03T00:06:08;4.73;;;4.33;;
55465;SDS011;41329;41.594;23.810;2023-04-03T00:08:35;4.87;;;4.47;;
55465;SDS011;41329;41.594;23.810;2023-04-03T00:11:01;3.57;;;3.27;;
55465;SDS011;41329;41.594;23.810;2023-04-03T00:13:26;3.70;;;3.40;;
55465;SDS011;41329;41.594;23.810;2023-04-03T00:15:52;3.90;;;3.60;;
55465;SDS011;41329;41.594;23.810;2023-04-03T00:18:18;3.53;;;3.20;;
55465;SDS011;41329;41.594;23.810;2023-04-03T00:20:43;3.43;;;3.13;;
55465;SDS011;41329;41.594;23.810;2023-04-03T00:23:09;2.97;;;2.77;;
55465;SDS011;41329;41.594;23.810;2023-04-03T00:25:35;2.87;;;2.67;;
55465;SDS011;41329;41.594;23.810;2023-04-03T00:28:01;3.33;;;3.03;;
55465;SDS011;41329;41.594;23.810;2023-04-03T00:30:27;3.43;;;3.13;;
55465;SDS011;41329;41.594;23.810;2023-04-03T00:32:52;3.83;;;3.50;;
55465;SDS011;41329;41.594;23.810;2023-04-03T00:35:19;4.93;;;4.53;;
55465;SDS011;41329;41.594;23.810;2023-04-03T00:37:45;6.07;;;5.23;;
55465;SDS011;41329;41.594;23.810;2023-04-03T00:40:12;7.73;;;5.97;;
55465;SDS011;41329;41.594;23.810;2023-04-03T00:42:39;7.03;;;6.43;;
55465;SDS011;41329;41.594;23.810;2023-04-03T00:47:31;6.40;;;5.90;;
55465;SDS011;41329;41.594;23.810;2023-04-03T00:49:57;6.40;;;5.90;;
55465;SDS011;41329;41.594;23.810;2023-04-03T00:52:24;6.20;;;5.43;;
55465;SDS011;41329;41.594;23.810;2023-04-03T00:54:54;5.80;;;4.78;;
55465;SDS011;41329;41.594;23.810;2023-04-03T00:57:29;3.37;;;3.07;;
55465;SDS011;41329;41.594;23.810;2023-04-03T00:59:57;3.80;;;3.50;;
55465;SDS011;41329;41.594;23.810;2023-04-03T01:02:26;4.20;;;3.80;;
55465;SDS011;41329;41.594;23.810;2023-04-03T01:04:52;3.50;;;3.20;;
55465;SDS011;41329;41.594;23.810;2023-04-03T01:07:22;3.07;;;2.87;;
55465;SDS011;41329;41.594;23.810;2023-04-03T01:09:52;6.63;;;4.13;;
55465;SDS011;41329;41.594;23.810;2023-04-03T01:12:29;4.55;;;4.15;;
55465;SDS011;41329;41.594;23.810;2023-04-03T01:15:00;4.53;;;4.10;;
55465;SDS011;41329;41.594;23.810;2023-04-03T01:17:39;3.60;;;3.30;;
55465;SDS011;41329;41.594;23.810;2023-04-03T01:25:15;3.67;;;3.37;;
55465;SDS011;41329;41.594;23.810;2023-04-03T01:27:41;3.60;;;3.30;;
55465;SDS011;41329;41.594;23.810;2023-04-03T01:30:06;4.00;;;3.60;;
55465;SDS011;41329;41.594;23.810;2023-04-03T01:32:32;5.33;;;4.03;;
55465;SDS011;41329;41.594;23.810;2023-04-03T01:34:58;4.07;;;3.77;;
55465;SDS011;41329;41.594;23.810;2023-04-03T01:37:23;3.33;;;3.03;;
55465;SDS011;41329;41.594;23.810;2023-04-03T01:39:49;4.10;;;3.37;;
55465;SDS011;41329;41.594;23.810;2023-04-03T01:42:14;5.17;;;3.00;;
55465;SDS011;41329;41.594;23.810;2023-04-03T01:44:40;3.20;;;2.77;;
55465;SDS011;41329;41.594;23.810;2023-04-03T01:47:06;3.73;;;3.43;;
55465;SDS011;41329;41.594;23.810;2023-04-03T01:49:32;3.57;;;3.27;;
55465;SDS011;41329;41.594;23.810;2023-04-03T01:51:57;3.50;;;3.20;;
55465;SDS011;41329;41.594;23.810;2023-04-03T01:54:23;3.30;;;3.00;;
55465;SDS011;41329;41.594;23.810;2023-04-03T01:56:48;3.73;;;3.43;;
55465;SDS011;41329;41.594;23.810;2023-04-03T01:59:14;3.20;;;3.00;;
55465;SDS011;41329;41.594;23.810;2023-04-03T02:01:41;3.13;;;2.70;;
55465;SDS011;41329;41.594;23.810;2023-04-03T02:04:08;3.20;;;2.60;;
55465;SDS011;41329;41.594;23.810;2023-04-03T02:06:34;4.40;;;3.20;;
55465;SDS011;41329;41.594;23.810;2023-04-03T02:08:59;3.50;;;2.67;;
55465;SDS011;41329;41.594;23.810;2023-04-03T02:11:25;2.47;;;2.27;;
55465;SDS011;41329;41.594;23.810;2023-04-03T02:13:51;3.10;;;2.80;;
55465;SDS011;41329;41.594;23.810;2023-04-03T02:16:16;2.47;;;2.23;;
55465;SDS011;41329;41.594;23.810;2023-04-03T02:18:41;3.13;;;2.93;;
55465;SDS011;41329;41.594;23.810;2023-04-03T02:21:07;3.13;;;2.63;;
55465;SDS011;41329;41.594;23.810;2023-04-03T02:23:33;3.10;;;2.80;;
55465;SDS011;41329;41.594;23.810;2023-04-03T02:26:08;4.17;;;3.77;;
55465;SDS011;41329;41.594;23.810;2023-04-03T02:28:36;10.10;;;5.00;;
55465;SDS011;41329;41.594;23.810;2023-04-03T02:31:02;5.13;;;4.10;;
55465;SDS011;41329;41.594;23.810;2023-04-03T02:33:28;9.97;;;3.90;;
55465;SDS011;41329;41.594;23.810;2023-04-03T02:35:54;4.37;;;3.87;;
55465;SDS011;41329;41.594;23.810;2023-04-03T02:38:21;4.67;;;4.20;;
55465;SDS011;41329;41.594;23.810;2023-04-03T02:40:47;6.20;;;4.23;;
55465;SDS011;41329;41.594;23.810;2023-04-03T02:43:12;4.47;;;4.07;;
55465;SDS011;41329;41.594;23.810;2023-04-03T02:45:37;5.57;;;3.67;;
55465;SDS011;41329;41.594;23.810;2023-04-03T02:48:03;5.07;;;4.67;;
55465;SDS011;41329;41.594;23.810;2023-04-03T02:50:29;3.47;;;3.23;;
55465;SDS011;41329;41.594;23.810;2023-04-03T02:52:54;3.50;;;3.20;;
55465;SDS011;41329;41.594;23.810;2023-04-03T02:55:20;3.83;;;3.40;;
55465;SDS011;41329;41.594;23.810;2023-04-03T02:57:45;2.87;;;2.67;;
55465;SDS011;41329;41.594;23.810;2023-04-03T03:00:11;3.30;;;3.00;;
55465;SDS011;41329;41.594;23.810;2023-04-03T03:02:37;5.57;;;2.80;;
55465;SDS011;41329;41.594;23.810;2023-04-03T03:05:03;4.27;;;2.80;;
55465;SDS011;41329;41.594;23.810;2023-04-03T03:07:29;5.40;;;2.87;;
55465;SDS011;41329;41.594;23.810;2023-04-03T03:09:54;3.03;;;2.73;;
55465;SDS011;41329;41.594;23.810;2023-04-03T03:12:20;4.37;;;3.20;;
55465;SDS011;41329;41.594;23.810;2023-04-03T03:14:47;3.27;;;2.83;;
55465;SDS011;41329;41.594;23.810;2023-04-03T03:17:13;3.17;;;2.97;;
55465;SDS011;41329;41.594;23.810;2023-04-03T03:19:38;3.17;;;2.57;;
55465;SDS011;41329;41.594;23.810;2023-04-03T03:22:04;2.67;;;2.47;;
55465;SDS011;41329;41.594;23.810;2023-04-03T03:24:29;2.77;;;2.57;;
55465;SDS011;41329;41.594;23.810;2023-04-03T03:26:55;3.73;;;2.83;;
55465;SDS011;41329;41.594;23.810;2023-04-03T03:29:20;3.53;;;3.10;;
55465;SDS011;41329;41.594;23.810;2023-04-03T03:31:46;5.30;;;4.90;;
55465;SDS011;41329;41.594;23.810;2023-04-03T03:34:11;5.77;;;5.23;;
55465;SDS011;41329;41.594;23.810;2023-04-03T03:36:37;6.73;;;6.10;;
55465;SDS011;41329;41.594;23.810;2023-04-03T03:39:02;7.63;;;6.83;;
55465;SDS011;41329;41.594;23.810;2023-04-03T03:41:28;11.33;;;8.23;;
55465;SDS011;41329;41.594;23.810;2023-04-03T03:43:53;18.53;;;12.00;;
55465;SDS011;41329;41.594;23.810;2023-04-03T03:46:19;22.77;;;10.33;;
55465;SDS011;41329;41.594;23.810;2023-04-03T03:48:44;16.43;;;9.97;;
55465;SDS011;41329;41.594;23.810;2023-04-03T03:51:10;10.53;;;9.43;;
55465;SDS011;41329;41.594;23.810;2023-04-03T03:53:35;11.07;;;9.07;;
55465;SDS011;41329;41.594;23.810;2023-04-03T03:56:01;15.60;;;11.70;;
55465;SDS011;41329;41.594;23.810;2023-04-03T03:58:26;10.93;;;9.77;;
55465;SDS011;41329;41.594;23.810;2023-04-03T04:00:52;8.67;;;7.13;;
55465;SDS011;41329;41.594;23.810;2023-04-03T04:03:17;7.87;;;7.17;;
55465;SDS011;41329;41.594;23.810;2023-04-03T04:05:43;18.37;;;11.60;;
55465;SDS011;41329;41.594;23.810;2023-04-03T04:08:09;14.90;;;13.20;;
55465;SDS011;41329;41.594;23.810;2023-04-03T04:10:35;7.73;;;7.13;;
55465;SDS011;41329;41.594;23.810;2023-04-03T04:13:02;6.20;;;5.37;;
55465;SDS011;41329;41.594;23.810;2023-04-03T04:15:28;6.00;;;5.50;;
55465;SDS011;41329;41.594;23.810;2023-04-03T04:17:54;4.90;;;4.30;;
55465;SDS011;41329;41.594;23.810;2023-04-03T04:20:19;5.53;;;5.23;;
55465;SDS011;41329;41.594;23.810;2023-04-03T04:22:44;5.43;;;5.03;;
55465;SDS011;41329;41.594;23.810;2023-04-03T04:25:10;3.90;;;3.60;;
55465;SDS011;41329;41.594;23.810;2023-04-03T04:27:35;4.20;;;2.40;;
55465;SDS011;41329;41.594;23.810;2023-04-03T04:30:02;2.33;;;1.97;;
55465;SDS011;41329;41.594;23.810;2023-04-03T04:32:28;2.30;;;2.10;;
55465;SDS011;41329;41.594;23.810;2023-04-03T04:34:53;2.27;;;1.90;;
55465;SDS011;41329;41.594;23.810;2023-04-03T04:37:19;2.00;;;1.90;;
55465;SDS011;41329;41.594;23.810;2023-04-03T04:39:44;2.10;;;1.90;;
55465;SDS011;41329;41.594;23.810;2023-04-03T04:42:10;2.13;;;2.03;;
55465;SDS011;41329;41.594;23.810;2023-04-03T04:44:38;1.77;;;1.67;;
55465;SDS011;41329;41.594;23.810;2023-04-03T04:47:04;2.00;;;1.67;;
55465;SDS011;41329;41.594;23.810;2023-04-03T04:49:29;2.40;;;2.10;;
55465;SDS011;41329;41.594;23.810;2023-04-03T04:51:55;1.87;;;1.77;;
55465;SDS011;41329;41.594;23.810;2023-04-03T04:54:20;2.60;;;1.97;;
55465;SDS011;41329;41.594;23.810;2023-04-03T04:56:46;1.97;;;1.87;;
55465;SDS011;41329;41.594;23.810;2023-04-03T04:59:12;2.80;;;2.27;;
55465;SDS011;41329;41.594;23.810;2023-04-03T05:01:37;2.93;;;2.73;;
55465;SDS011;41329;41.594;23.810;2023-04-03T05:04:03;2.57;;;2.37;;
55465;SDS011;41329;41.594;23.810;2023-04-03T05:06:28;2.57;;;2.37;;
55465;SDS011;41329;41.594;23.810;2023-04-03T05:08:57;3.10;;;2.77;;
55465;SDS011;41329;41.594;23.810;2023-04-03T05:11:23;5.00;;;4.00;;
55465;SDS011;41329;41.594;23.810;2023-04-03T05:13:49;55.00;;;35.90;;
55465;SDS011;41329;41.594;23.810;2023-04-03T05:16:14;98.33;;;63.27;;
55465;SDS011;41329;41.594;23.810;2023-04-03T05:18:40;100.57;;;53.90;;
55465;SDS011;41329;41.594;23.810;2023-04-03T05:21:05;74.37;;;44.53;;
55465;SDS011;41329;41.594;23.810;2023-04-03T05:23:31;50.03;;;36.10;;
55465;SDS011;41329;41.594;23.810;2023-04-03T05:25:56;48.00;;;33.30;;
55465;SDS011;41329;41.594;23.810;2023-04-03T05:28:22;30.07;;;19.93;;
55465;SDS011;41329;41.594;23.810;2023-04-03T05:30:57;21.20;;;18.10;;
55465;SDS011;41329;41.594;23.810;2023-04-03T05:33:23;20.50;;;16.77;;
55465;SDS011;41329;41.594;23.810;2023-04-03T05:35:49;17.53;;;8.80;;
55465;SDS011;41329;41.594;23.810;2023-04-03T05:38:15;6.93;;;5.47;;
55465;SDS011;41329;41.594;23.810;2023-04-03T05:40:41;31.50;;;21.27;;
55465;SDS011;41329;41.594;23.810;2023-04-03T05:43:07;19.63;;;17.63;;
55465;SDS011;41329;41.594;23.810;2023-04-03T05:45:32;21.33;;;17.83;;
55465;SDS011;41329;41.594;23.810;2023-04-03T05:47:58;26.77;;;18.40;;
55465;SDS011;41329;41.594;23.810;2023-04-03T05:50:23;23.27;;;18.60;;
55465;SDS011;41329;41.594;23.810;2023-04-03T05:52:49;24.87;;;21.70;;
55465;SDS011;41329;41.594;23.810;2023-04-03T05:55:16;20.80;;;18.87;;
55465;SDS011;41329;41.594;23.810;2023-04-03T05:57:42;41.87;;;37.47;;
55465;SDS011;41329;41.594;23.810;2023-04-03T06:00:07;8.73;;;7.97;;
55465;SDS011;41329;41.594;23.810;2023-04-03T06:02:37;9.40;;;7.43;;
55465;SDS011;41329;41.594;23.810;2023-04-03T06:05:03;8.57;;;7.20;;
55465;SDS011;41329;41.594;23.810;2023-04-03T06:07:29;6.90;;;6.30;;
55465;SDS011;41329;41.594;23.810;2023-04-03T06:09:55;12.37;;;10.57;;
55465;SDS011;41329;41.594;23.810;2023-04-03T06:12:22;14.53;;;13.10;;
55465;SDS011;41329;41.594;23.810;2023-04-03T06:14:48;17.50;;;16.10;;
55465;SDS011;41329;41.594;23.810;2023-04-03T06:17:14;30.33;;;24.93;;
55465;SDS011;41329;41.594;23.810;2023-04-03T06:19:40;24.00;;;18.50;;
55465;SDS011;41329;41.594;23.810;2023-04-03T06:22:06;34.83;;;25.70;;
55465;SDS011;41329;41.594;23.810;2023-04-03T06:24:32;40.57;;;28.30;;
55465;SDS011;41329;41.594;23.810;2023-04-03T06:26:58;37.27;;;28.47;;
55465;SDS011;41329;41.594;23.810;2023-04-03T06:29:24;32.67;;;23.90;;
55465;SDS011;41329;41.594;23.810;2023-04-03T06:31:50;28.17;;;22.10;;
55465;SDS011;41329;41.594;23.810;2023-04-03T06:34:16;24.53;;;21.23;;
55465;SDS011;41329;41.594;23.810;2023-04-03T06:36:43;24.20;;;20.67;;
55465;SDS011;41329;41.594;23.810;2023-04-03T06:39:16;32.53;;;20.60;;
55465;SDS011;41329;41.594;23.810;2023-04-03T06:41:45;28.23;;;18.03;;
55465;SDS011;41329;41.594;23.810;2023-04-03T06:44:11;33.10;;;22.23;;
55465;SDS011;41329;41.594;23.810;2023-04-03T06:46:38;37.73;;;23.90;;
55465;SDS011;41329;41.594;23.810;2023-04-03T06:49:04;17.07;;;15.20;;
55465;SDS011;41329;41.594;23.810;2023-04-03T06:51:33;15.07;;;13.73;;
55465;SDS011;41329;41.594;23.810;2023-04-03T06:53:59;12.83;;;11.67;;
55465;SDS011;41329;41.594;23.810;2023-04-03T06:56:25;10.63;;;9.63;;
55465;SDS011;41329;41.594;23.810;2023-04-03T06:58:52;9.23;;;8.53;;
55465;SDS011;41329;41.594;23.810;2023-04-03T07:01:26;8.90;;;8.23;;
55465;SDS011;41329;41.594;23.810;2023-04-03T07:03:52;8.27;;;7.53;;
55465;SDS011;41329;41.594;23.810;2023-04-03T07:06:19;11.40;;;8.00;;
55465;SDS011;41329;41.594;23.810;2023-04-03T07:08:45;8.60;;;7.57;;
55465;SDS011;41329;41.594;23.810;2023-04-03T07:11:12;9.63;;;8.80;;
55465;SDS011;41329;41.594;23.810;2023-04-03T07:13:38;8.37;;;7.83;;
55465;SDS011;41329;41.594;23.810;2023-04-03T07:16:04;11.50;;;10.60;;
55465;SDS011;41329;41.594;23.810;2023-04-03T07:18:33;9.47;;;8.77;;
55465;SDS011;41329;41.594;23.810;2023-04-03T07:20:59;8.17;;;7.57;;
55465;SDS011;41329;41.594;23.810;2023-04-03T07:23:25;9.57;;;8.67;;
55465;SDS011;41329;41.594;23.810;2023-04-03T07:25:51;17.13;;;15.10;;
55465;SDS011;41329;41.594;23.810;2023-04-03T07:28:18;13.13;;;12.13;;
55465;SDS011;41329;41.594;23.810;2023-04-03T07:30:46;11.93;;;10.90;;
55465;SDS011;41329;41.594;23.810;2023-04-03T07:33:13;12.83;;;11.53;;
55465;SDS011;41329;41.594;23.810;2023-04-03T07:35:40;12.47;;;11.30;;
55465;SDS011;41329;41.594;23.810;2023-04-03T07:38:07;20.23;;;18.17;;
55465;SDS011;41329;41.594;23.810;2023-04-03T07:40:33;18.87;;;17.03;;
55465;SDS011;41329;41.594;23.810;2023-04-03T07:42:58;16.63;;;15.13;;
55465;SDS011;41329;41.594;23.810;2023-04-03T07:45:24;16.50;;;13.73;;
55465;SDS011;41329;41.594;23.810;2023-04-03T07:47:50;24.17;;;19.17;;
55465;SDS011;41329;41.594;23.810;2023-04-03T07:50:16;20.57;;;17.83;;
55465;SDS011;41329;41.594;23.810;2023-04-03T07:52:41;18.47;;;16.60;;
55465;SDS011;41329;41.594;23.810;2023-04-03T07:55:07;23.13;;;20.57;;
55465;SDS011;41329;41.594;23.810;2023-04-03T07:57:33;25.73;;;21.57;;
55465;SDS011;41329;41.594;23.810;2023-04-03T07:59:58;44.90;;;30.00;;
55465;SDS011;41329;41.594;23.810;2023-04-03T08:02:24;85.50;;;49.90;;
55465;SDS011;41329;41.594;23.810;2023-04-03T08:04:50;81.10;;;47.27;;
55465;SDS011;41329;41.594;23.810;2023-04-03T08:07:15;61.73;;;34.90;;
55465;SDS011;41329;41.594;23.810;2023-04-03T08:09:41;19.43;;;17.53;;
55465;SDS011;41329;41.594;23.810;2023-04-03T08:12:07;16.63;;;15.17;;
55465;SDS011;41329;41.594;23.810;2023-04-03T08:14:32;11.30;;;10.37;;
55465;SDS011;41329;41.594;23.810;2023-04-03T08:16:59;13.70;;;12.40;;
55465;SDS011;41329;41.594;23.810;2023-04-03T08:19:25;12.57;;;11.67;;
55465;SDS011;41329;41.594;23.810;2023-04-03T08:21:53;20.70;;;14.37;;
55465;SDS011;41329;41.594;23.810;2023-04-03T08:24:19;13.37;;;12.20;;
55465;SDS011;41329;41.594;23.810;2023-04-03T08:26:44;10.00;;;9.20;;
55465;SDS011;41329;41.594;23.810;2023-04-03T08:29:10;11.00;;;9.97;;
55465;SDS011;41329;41.594;23.810;2023-04-03T08:31:35;12.63;;;11.43;;
55465;SDS011;41329;41.594;23.810;2023-04-03T08:34:01;14.00;;;12.67;;
55465;SDS011;41329;41.594;23.810;2023-04-03T08:36:28;16.70;;;14.97;;
55465;SDS011;41329;41.594;23.810;2023-04-03T08:38:55;13.83;;;12.63;;
55465;SDS011;41329;41.594;23.810;2023-04-03T08:41:32;26.70;;;20.63;;
55465;SDS011;41329;41.594;23.810;2023-04-03T08:52:12;12.13;;;11.20;;
55465;SDS011;41329;41.594;23.810;2023-04-03T08:54:47;10.43;;;9.53;;
55465;SDS011;41329;41.594;23.810;2023-04-03T08:57:13;7.60;;;7.00;;
55465;SDS011;41329;41.594;23.810;2023-04-03T08:59:39;5.97;;;5.57;;
55465;SDS011;41329;41.594;23.810;2023-04-03T09:02:27;5.30;;;4.90;;
55465;SDS011;41329;41.594;23.810;2023-04-03T09:04:55;6.70;;;6.10;;
55465;SDS011;41329;41.594;23.810;2023-04-03T09:07:23;5.13;;;4.63;;
55465;SDS011;41329;41.594;23.810;2023-04-03T09:09:56;4.53;;;4.13;;
55465;SDS011;41329;41.594;23.810;2023-04-03T09:12:29;3.93;;;3.63;;
55465;SDS011;41329;41.594;23.810;2023-04-03T09:15:07;3.83;;;3.53;;
55465;SDS011;41329;41.594;23.810;2023-04-03T09:17:41;3.93;;;3.63;;
55465;SDS011;41329;41.594;23.810;2023-04-03T09:23:38;6.17;;;5.77;;
55465;SDS011;41329;41.594;23.810;2023-04-03T09:26:30;20.60;;;16.23;;
55465;SDS011;41329;41.594;23.810;2023-04-03T09:28:54;25.23;;;19.50;;
55465;SDS011;41329;41.594;23.810;2023-04-03T09:31:24;6.80;;;6.27;;
55465;SDS011;41329;41.594;23.810;2023-04-03T09:34:10;8.87;;;8.27;;
55465;SDS011;41329;41.594;23.810;2023-04-03T09:36:52;17.20;;;13.93;;
55465;SDS011;41329;41.594;23.810;2023-04-03T09:39:23;11.27;;;10.47;;
55465;SDS011;41329;41.594;23.810;2023-04-03T09:42:35;13.70;;;12.60;;
55465;SDS011;41329;41.594;23.810;2023-04-03T09:44:44;15.57;;;14.23;;
55465;SDS011;41329;41.594;23.810;2023-04-03T09:52:44;21.80;;;19.30;;
55465;SDS011;41329;41.594;23.810;2023-04-03T09:55:15;24.57;;;20.10;;
55465;SDS011;41329;41.594;23.810;2023-04-03T09:57:41;33.83;;;24.60;;
55465;SDS011;41329;41.594;23.810;2023-04-03T10:00:19;35.03;;;23.33;;
55465;SDS011;41329;41.594;23.810;2023-04-03T10:02:51;27.03;;;22.77;;
55465;SDS011;41329;41.594;23.810;2023-04-03T10:05:33;33.93;;;24.30;;
55465;SDS011;41329;41.594;23.810;2023-04-03T10:10:38;38.00;;;28.77;;
55465;SDS011;41329;41.594;23.810;2023-04-03T10:13:18;41.97;;;29.47;;
55465;SDS011;41329;41.594;23.810;2023-04-03T10:16:07;43.53;;;31.37;;
55465;SDS011;41329;41.594;23.810;2023-04-03T10:21:10;44.00;;;29.97;;
55465;SDS011;41329;41.594;23.810;2023-04-03T10:23:51;36.07;;;28.53;;
55465;SDS011;41329;41.594;23.810;2023-04-03T10:29:31;47.95;;;33.33;;
55465;SDS011;41329;41.594;23.810;2023-04-03T10:34:42;59.17;;;37.67;;
55465;SDS011;41329;41.594;23.810;2023-04-03T10:42:28;22.93;;;20.60;;
55465;SDS011;41329;41.594;23.810;2023-04-03T10:53:35;16.40;;;14.80;;
55465;SDS011;41329;41.594;23.810;2023-04-03T10:56:13;22.67;;;20.10;;
55465;SDS011;41329;41.594;23.810;2023-04-03T10:58:45;25.13;;;18.97;;
55465;SDS011;41329;41.594;23.810;2023-04-03T11:01:20;18.10;;;16.57;;
55465;SDS011;41329;41.594;23.810;2023-04-03T11:03:56;16.03;;;14.63;;
55465;SDS011;41329;41.594;23.810;2023-04-03T11:06:24;10.17;;;9.37;;
55465;SDS011;41329;41.594;23.810;2023-04-03T11:08:57;8.90;;;8.10;;
55465;SDS011;41329;41.594;23.810;2023-04-03T11:11:33;62.10;;;40.33;;
55465;SDS011;41329;41.594;23.810;2023-04-03T11:14:12;21.73;;;17.00;;
55465;SDS011;41329;41.594;23.810;2023-04-03T11:16:47;11.17;;;10.33;;
55465;SDS011;41329;41.594;23.810;2023-04-03T11:19:34;9.57;;;8.60;;
55465;SDS011;41329;41.594;23.810;2023-04-03T11:22:23;9.60;;;8.53;;
55465;SDS011;41329;41.594;23.810;2023-04-03T11:25:15;10.47;;;9.73;;
55465;SDS011;41329;41.594;23.810;2023-04-03T11:27:59;14.70;;;13.40;;
55465;SDS011;41329;41.594;23.810;2023-04-03T11:36:34;30.23;;;26.53;;
55465;SDS011;41329;41.594;23.810;2023-04-03T11:39:17;36.20;;;28.60;;
55465;SDS011;41329;41.594;23.810;2023-04-03T11:41:50;52.93;;;33.33;;
55465;SDS011;41329;41.594;23.810;2023-04-03T11:47:43;28.97;;;25.07;;
55465;SDS011;41329;41.594;23.810;2023-04-03T12:16:23;38.10;;;25.80;;
55465;SDS011;41329;41.594;23.810;2023-04-03T12:29:21;13.07;;;11.97;;
55465;SDS011;41329;41.594;23.810;2023-04-03T12:31:56;10.07;;;9.20;;
55465;SDS011;41329;41.594;23.810;2023-04-03T12:40:23;8.10;;;7.47;;
55465;SDS011;41329;41.594;23.810;2023-04-03T12:46:02;9.40;;;8.67;;
55465;SDS011;41329;41.594;23.810;2023-04-03T12:48:29;7.87;;;7.33;;
55465;SDS011;41329;41.594;23.810;2023-04-03T12:50:57;7.87;;;7.23;;
55465;SDS011;41329;41.594;23.810;2023-04-03T12:53:28;11.47;;;10.60;;
55465;SDS011;41329;41.594;23.810;2023-04-03T12:58:46;10.47;;;9.57;;
55465;SDS011;41329;41.594;23.810;2023-04-03T13:01:22;10.63;;;9.77;;
55465;SDS011;41329;41.594;23.810;2023-04-03T13:03:53;11.17;;;10.27;;
55465;SDS011;41329;41.594;23.810;2023-04-03T13:08:58;9.90;;;9.00;;
55465;SDS011;41329;41.594;23.810;2023-04-03T13:11:27;8.40;;;7.60;;
55465;SDS011;41329;41.594;23.810;2023-04-03T13:14:00;11.37;;;10.20;;
55465;SDS011;41329;41.594;23.810;2023-04-03T13:16:30;4.33;;;4.03;;
55465;SDS011;41329;41.594;23.810;2023-04-03T13:18:56;6.80;;;6.33;;
55465;SDS011;41329;41.594;23.810;2023-04-03T13:21:27;8.37;;;7.87;;
55465;SDS011;41329;41.594;23.810;2023-04-03T13:23:55;8.57;;;7.97;;
55465;SDS011;41329;41.594;23.810;2023-04-03T13:26:25;10.40;;;9.63;;
55465;SDS011;41329;41.594;23.810;2023-04-03T13:28:54;10.97;;;9.97;;
55465;SDS011;41329;41.594;23.810;2023-04-03T13:31:26;9.30;;;8.47;;
55465;SDS011;41329;41.594;23.810;2023-04-03T13:34:02;7.95;;;7.35;;
55465;SDS011;41329;41.594;23.810;2023-04-03T13:41:47;10.00;;;9.00;;
55465;SDS011;41329;41.594;23.810;2023-04-03T13:46:42;7.37;;;6.77;;
55465;SDS011;41329;41.594;23.810;2023-04-03T13:52:01;6.43;;;5.83;;
55465;SDS011;41329;41.594;23.810;2023-04-03T13:54:33;6.00;;;5.60;;
55465;SDS011;41329;41.594;23.810;2023-04-03T13:57:03;5.97;;;5.57;;
55465;SDS011;41329;41.594;23.810;2023-04-03T13:59:36;6.30;;;5.90;;
55465;SDS011;41329;41.594;23.810;2023-04-03T14:04:29;10.03;;;9.33;;
55465;SDS011;41329;41.594;23.810;2023-04-03T14:06:56;14.43;;;13.10;;
55465;SDS011;41329;41.594;23.810;2023-04-03T14:09:23;17.20;;;15.40;;
55465;SDS011;41329;41.594;23.810;2023-04-03T14:11:55;14.20;;;13.20;;
55465;SDS011;41329;41.594;23.810;2023-04-03T14:14:30;14.37;;;12.80;;
55465;SDS011;41329;41.594;23.810;2023-04-03T14:17:00;39.63;;;25.87;;
55465;SDS011;41329;41.594;23.810;2023-04-03T14:19:28;17.83;;;15.98;;
55465;SDS011;41329;41.594;23.810;2023-04-03T14:21:57;17.25;;;14.50;;
55465;SDS011;41329;41.594;23.810;2023-04-03T14:24:23;16.10;;;14.60;;
55465;SDS011;41329;41.594;23.810;2023-04-03T14:26:50;16.10;;;14.60;;
55465;SDS011;41329;41.594;23.810;2023-04-03T14:29:17;20.73;;;18.60;;
55465;SDS011;41329;41.594;23.810;2023-04-03T14:31:43;18.60;;;16.83;;
55465;SDS011;41329;41.594;23.810;2023-04-03T14:34:11;15.03;;;13.93;;
55465;SDS011;41329;41.594;23.810;2023-04-03T14:36:37;18.97;;;17.33;;
55465;SDS011;41329;41.594;23.810;2023-04-03T14:39:05;11.03;;;10.13;;
55465;SDS011;41329;41.594;23.810;2023-04-03T14:41:31;18.23;;;16.87;;
55465;SDS011;41329;41.594;23.810;2023-04-03T14:43:56;17.83;;;16.00;;
55465;SDS011;41329;41.594;23.810;2023-04-03T14:48:53;16.20;;;14.90;;
55465;SDS011;41329;41.594;23.810;2023-04-03T14:51:19;31.27;;;23.70;;
55465;SDS011;41329;41.594;23.810;2023-04-03T14:53:44;19.20;;;17.40;;
55465;SDS011;41329;41.594;23.810;2023-04-03T14:56:11;10.47;;;9.67;;
55465;SDS011;41329;41.594;23.810;2023-04-03T14:58:39;8.97;;;7.90;;
55465;SDS011;41329;41.594;23.810;2023-04-03T15:01:04;10.93;;;10.13;;
55465;SDS011;41329;41.594;23.810;2023-04-03T15:03:30;9.33;;;8.53;;
55465;SDS011;41329;41.594;23.810;2023-04-03T15:05:55;18.40;;;17.00;;
55465;SDS011;41329;41.594;23.810;2023-04-03T15:08:26;9.97;;;9.27;;
55465;SDS011;41329;41.594;23.810;2023-04-03T15:10:54;9.60;;;9.00;;
55465;SDS011;41329;41.594;23.810;2023-04-03T15:13:21;10.90;;;10.10;;
55465;SDS011;41329;41.594;23.810;2023-04-03T15:15:47;10.00;;;9.30;;
55465;SDS011;41329;41.594;23.810;2023-04-03T15:18:24;6.90;;;6.40;;
55465;SDS011;41329;41.594;23.810;2023-04-03T15:20:51;10.03;;;8.23;;
55465;SDS011;41329;41.594;23.810;2023-04-03T15:23:18;10.97;;;10.00;;
55465;SDS011;41329;41.594;23.810;2023-04-03T15:25:47;7.20;;;6.57;;
55465;SDS011;41329;41.594;23.810;2023-04-03T15:28:25;9.57;;;8.88;;
55465;SDS011;41329;41.594;23.810;2023-04-03T15:30:53;9.35;;;8.75;;
55465;SDS011;41329;41.594;23.810;2023-04-03T15:33:19;13.57;;;12.57;;
55465;SDS011;41329;41.594;23.810;2023-04-03T15:35:45;7.37;;;6.87;;
55465;SDS011;41329;41.594;23.810;2023-04-03T15:38:10;8.13;;;7.53;;
55465;SDS011;41329;41.594;23.810;2023-04-03T15:40:36;7.10;;;6.60;;
55465;SDS011;41329;41.594;23.810;2023-04-03T15:43:02;5.83;;;5.33;;
55465;SDS011;41329;41.594;23.810;2023-04-03T15:45:28;5.97;;;5.50;;
55465;SDS011;41329;41.594;23.810;2023-04-03T15:47:55;8.10;;;7.50;;
55465;SDS011;41329;41.594;23.810;2023-04-03T15:50:21;9.87;;;9.07;;
55465;SDS011;41329;41.594;23.810;2023-04-03T15:52:49;10.07;;;9.23;;
55465;SDS011;41329;41.594;23.810;2023-04-03T15:55:22;9.15;;;8.25;;
55465;SDS011;41329;41.594;23.810;2023-04-03T15:57:49;10.13;;;9.10;;
55465;SDS011;41329;41.594;23.810;2023-04-03T16:00:15;10.60;;;9.47;;
55465;SDS011;41329;41.594;23.810;2023-04-03T16:02:41;10.73;;;9.73;;
55465;SDS011;41329;41.594;23.810;2023-04-03T16:05:08;9.13;;;8.47;;
55465;SDS011;41329;41.594;23.810;2023-04-03T16:07:36;10.03;;;9.20;;
55465;SDS011;41329;41.594;23.810;2023-04-03T16:10:04;12.97;;;12.03;;
55465;SDS011;41329;41.594;23.810;2023-04-03T16:12:30;10.83;;;9.93;;
55465;SDS011;41329;41.594;23.810;2023-04-03T16:14:55;21.30;;;18.87;;
55465;SDS011;41329;41.594;23.810;2023-04-03T16:17:21;22.77;;;20.80;;
55465;SDS011;41329;41.594;23.810;2023-04-03T16:19:46;9.00;;;8.40;;
55465;SDS011;41329;41.594;23.810;2023-04-03T16:22:12;10.43;;;9.53;;
55465;SDS011;41329;41.594;23.810;2023-04-03T16:24:38;10.00;;;9.33;;
55465;SDS011;41329;41.594;23.810;2023-04-03T16:27:03;15.40;;;14.23;;
55465;SDS011;41329;41.594;23.810;2023-04-03T16:29:29;20.80;;;18.60;;
55465;SDS011;41329;41.594;23.810;2023-04-03T16:31:55;12.03;;;11.20;;
55465;SDS011;41329;41.594;23.810;2023-04-03T16:34:21;10.53;;;9.20;;